sensor_id;sensor_type;location;lat;lon;timestamp;P1;durP1;ratioP1;P2;durP2;ratioP2
28531;SDS011;15738;44.860;10.066;2023-07-31T00:00:02;7.90;;;3.80;;
28531;SDS011;15738;44.860;10.066;2023-07-31T00:02:49;7.68;;;3.53;;
28531;SDS011;15738;44.860;10.066;2023-07-31T00:05:35;6.82;;;3.50;;
28531;SDS011;15738;44.860;10.066;2023-07-31T00:08:21;6.63;;;4.32;;
28531;SDS011;15738;44.860;10.066;2023-07-31T00:11:07;6.30;;;3.95;;
28531;SDS011;15738;44.860;10.066;2023-07-31T00:13:53;10.38;;;5.15;;
28531;SDS011;15738;44.860;10.066;2023-07-31T00:16:39;10.77;;;4.63;;
28531;SDS011;15738;44.860;10.066;2023-07-31T00:19:25;10.23;;;6.25;;
28531;SDS011;15738;44.860;10.066;2023-07-31T00:22:11;10.90;;;6.10;;
28531;SDS011;15738;44.860;10.066;2023-07-31T00:24:57;12.88;;;6.68;;
28531;SDS011;15738;44.860;10.066;2023-07-31T00:27:43;14.50;;;9.55;;
28531;SDS011;15738;44.860;10.066;2023-07-31T00:30:30;15.30;;;9.15;;
28531;SDS011;15738;44.860;10.066;2023-07-31T00:33:18;14.75;;;8.50;;
28531;SDS011;15738;44.860;10.066;2023-07-31T00:36:04;14.48;;;9.93;;
28531;SDS011;15738;44.860;10.066;2023-07-31T00:38:50;17.25;;;9.27;;
28531;SDS011;15738;44.860;10.066;2023-07-31T00:41:35;14.27;;;8.82;;
28531;SDS011;15738;44.860;10.066;2023-07-31T00:44:21;18.10;;;9.40;;
28531;SDS011;15738;44.860;10.066;2023-07-31T00:47:07;15.77;;;9.10;;
28531;SDS011;15738;44.860;10.066;2023-07-31T00:49:53;13.77;;;8.75;;
28531;SDS011;15738;44.860;10.066;2023-07-31T00:52:39;12.10;;;8.48;;
28531;SDS011;15738;44.860;10.066;2023-07-31T00:55:25;12.52;;;8.85;;
28531;SDS011;15738;44.860;10.066;2023-07-31T00:58:10;12.77;;;8.95;;
28531;SDS011;15738;44.860;10.066;2023-07-31T01:00:56;15.30;;;8.90;;
28531;SDS011;15738;44.860;10.066;2023-07-31T01:03:43;13.23;;;9.25;;
28531;SDS011;15738;44.860;10.066;2023-07-31T01:06:48;16.50;;;8.48;;
28531;SDS011;15738;44.860;10.066;2023-07-31T01:12:36;13.63;;;9.00;;
28531;SDS011;15738;44.860;10.066;2023-07-31T01:15:24;11.52;;;8.43;;
28531;SDS011;15738;44.860;10.066;2023-07-31T01:18:09;17.60;;;8.80;;
28531;SDS011;15738;44.860;10.066;2023-07-31T01:20:58;18.58;;;9.77;;
28531;SDS011;15738;44.860;10.066;2023-07-31T01:32:39;15.57;;;8.02;;
28531;SDS011;15738;44.860;10.066;2023-07-31T01:35:27;12.98;;;6.85;;
28531;SDS011;15738;44.860;10.066;2023-07-31T01:38:13;10.32;;;6.32;;
28531;SDS011;15738;44.860;10.066;2023-07-31T01:41:00;10.68;;;6.10;;
28531;SDS011;15738;44.860;10.066;2023-07-31T01:43:46;9.57;;;5.88;;
28531;SDS011;15738;44.860;10.066;2023-07-31T01:46:32;15.23;;;6.13;;
28531;SDS011;15738;44.860;10.066;2023-07-31T01:49:17;11.95;;;6.28;;
28531;SDS011;15738;44.860;10.066;2023-07-31T01:52:03;12.77;;;6.45;;
28531;SDS011;15738;44.860;10.066;2023-07-31T01:54:50;10.25;;;5.38;;
28531;SDS011;15738;44.860;10.066;2023-07-31T01:57:36;15.52;;;5.70;;
28531;SDS011;15738;44.860;10.066;2023-07-31T02:00:23;15.27;;;5.22;;
28531;SDS011;15738;44.860;10.066;2023-07-31T02:03:09;11.20;;;4.97;;
28531;SDS011;15738;44.860;10.066;2023-07-31T02:05:55;10.88;;;5.25;;
28531;SDS011;15738;44.860;10.066;2023-07-31T02:08:43;16.17;;;5.75;;
28531;SDS011;15738;44.860;10.066;2023-07-31T02:11:30;11.55;;;5.55;;
28531;SDS011;15738;44.860;10.066;2023-07-31T02:14:16;15.30;;;5.50;;
28531;SDS011;15738;44.860;10.066;2023-07-31T02:17:02;12.30;;;4.88;;
28531;SDS011;15738;44.860;10.066;2023-07-31T02:19:48;11.23;;;4.82;;
28531;SDS011;15738;44.860;10.066;2023-07-31T02:22:34;7.25;;;4.70;;
28531;SDS011;15738;44.860;10.066;2023-07-31T02:25:20;11.07;;;4.60;;
28531;SDS011;15738;44.860;10.066;2023-07-31T02:28:06;11.73;;;4.72;;
28531;SDS011;15738;44.860;10.066;2023-07-31T02:30:52;9.00;;;4.95;;
28531;SDS011;15738;44.860;10.066;2023-07-31T02:33:37;10.23;;;4.88;;
28531;SDS011;15738;44.860;10.066;2023-07-31T02:36:23;5.55;;;4.40;;
28531;SDS011;15738;44.860;10.066;2023-07-31T02:39:09;9.90;;;4.90;;
28531;SDS011;15738;44.860;10.066;2023-07-31T02:41:54;11.68;;;4.82;;
28531;SDS011;15738;44.860;10.066;2023-07-31T02:44:41;10.15;;;4.50;;
28531;SDS011;15738;44.860;10.066;2023-07-31T02:47:27;13.55;;;4.38;;
28531;SDS011;15738;44.860;10.066;2023-07-31T02:50:13;7.82;;;4.78;;
28531;SDS011;15738;44.860;10.066;2023-07-31T02:52:59;7.75;;;4.50;;
28531;SDS011;15738;44.860;10.066;2023-07-31T02:55:45;10.63;;;4.88;;
28531;SDS011;15738;44.860;10.066;2023-07-31T02:58:31;11.77;;;5.43;;
28531;SDS011;15738;44.860;10.066;2023-07-31T03:01:17;9.48;;;4.78;;
28531;SDS011;15738;44.860;10.066;2023-07-31T03:04:03;7.85;;;4.90;;
28531;SDS011;15738;44.860;10.066;2023-07-31T03:06:49;13.00;;;5.28;;
28531;SDS011;15738;44.860;10.066;2023-07-31T03:09:35;8.68;;;4.80;;
28531;SDS011;15738;44.860;10.066;2023-07-31T03:12:21;9.75;;;5.20;;
28531;SDS011;15738;44.860;10.066;2023-07-31T03:15:07;10.45;;;5.20;;
28531;SDS011;15738;44.860;10.066;2023-07-31T03:17:53;9.63;;;5.00;;
28531;SDS011;15738;44.860;10.066;2023-07-31T03:20:42;10.93;;;5.50;;
28531;SDS011;15738;44.860;10.066;2023-07-31T03:23:29;7.57;;;5.10;;
28531;SDS011;15738;44.860;10.066;2023-07-31T03:26:15;9.55;;;5.90;;
28531;SDS011;15738;44.860;10.066;2023-07-31T03:29:01;12.95;;;5.45;;
28531;SDS011;15738;44.860;10.066;2023-07-31T03:31:47;14.05;;;7.47;;
28531;SDS011;15738;44.860;10.066;2023-07-31T03:34:33;14.55;;;8.55;;
28531;SDS011;15738;44.860;10.066;2023-07-31T03:37:19;14.52;;;9.60;;
28531;SDS011;15738;44.860;10.066;2023-07-31T03:40:05;16.73;;;8.63;;
28531;SDS011;15738;44.860;10.066;2023-07-31T03:42:52;15.75;;;9.13;;
28531;SDS011;15738;44.860;10.066;2023-07-31T03:45:38;17.17;;;9.02;;
28531;SDS011;15738;44.860;10.066;2023-07-31T03:48:24;14.23;;;8.35;;
28531;SDS011;15738;44.860;10.066;2023-07-31T03:51:09;12.07;;;8.68;;
28531;SDS011;15738;44.860;10.066;2023-07-31T03:53:55;16.20;;;9.65;;
28531;SDS011;15738;44.860;10.066;2023-07-31T03:56:40;16.85;;;8.50;;
28531;SDS011;15738;44.860;10.066;2023-07-31T03:59:27;14.45;;;7.30;;
28531;SDS011;15738;44.860;10.066;2023-07-31T04:02:13;11.80;;;7.70;;
28531;SDS011;15738;44.860;10.066;2023-07-31T04:04:59;17.05;;;7.85;;
28531;SDS011;15738;44.860;10.066;2023-07-31T04:07:45;12.25;;;6.60;;
28531;SDS011;15738;44.860;10.066;2023-07-31T04:10:31;13.80;;;5.50;;
28531;SDS011;15738;44.860;10.066;2023-07-31T04:13:18;13.05;;;5.85;;
28531;SDS011;15738;44.860;10.066;2023-07-31T04:16:04;10.75;;;5.43;;
28531;SDS011;15738;44.860;10.066;2023-07-31T04:18:50;7.93;;;5.00;;
28531;SDS011;15738;44.860;10.066;2023-07-31T04:21:36;7.18;;;4.72;;
28531;SDS011;15738;44.860;10.066;2023-07-31T04:24:22;10.55;;;4.53;;
28531;SDS011;15738;44.860;10.066;2023-07-31T04:27:10;10.50;;;5.18;;
28531;SDS011;15738;44.860;10.066;2023-07-31T04:29:55;7.78;;;4.40;;
28531;SDS011;15738;44.860;10.066;2023-07-31T04:32:41;6.85;;;4.53;;
28531;SDS011;15738;44.860;10.066;2023-07-31T04:35:27;11.85;;;5.10;;
28531;SDS011;15738;44.860;10.066;2023-07-31T04:38:12;9.75;;;5.20;;
28531;SDS011;15738;44.860;10.066;2023-07-31T04:40:58;9.45;;;4.72;;
28531;SDS011;15738;44.860;10.066;2023-07-31T04:43:44;15.07;;;5.20;;
28531;SDS011;15738;44.860;10.066;2023-07-31T04:46:30;13.45;;;5.10;;
28531;SDS011;15738;44.860;10.066;2023-07-31T04:49:16;13.52;;;5.13;;
28531;SDS011;15738;44.860;10.066;2023-07-31T04:52:02;18.33;;;5.82;;
28531;SDS011;15738;44.860;10.066;2023-07-31T04:54:48;14.68;;;5.25;;
28531;SDS011;15738;44.860;10.066;2023-07-31T04:57:34;14.73;;;6.07;;
28531;SDS011;15738;44.860;10.066;2023-07-31T05:00:20;13.05;;;5.47;;
28531;SDS011;15738;44.860;10.066;2023-07-31T05:03:06;8.93;;;4.85;;
28531;SDS011;15738;44.860;10.066;2023-07-31T05:05:52;15.57;;;5.68;;
28531;SDS011;15738;44.860;10.066;2023-07-31T05:08:38;13.05;;;5.57;;
28531;SDS011;15738;44.860;10.066;2023-07-31T05:11:24;7.78;;;5.53;;
28531;SDS011;15738;44.860;10.066;2023-07-31T05:14:10;12.73;;;6.10;;
28531;SDS011;15738;44.860;10.066;2023-07-31T05:16:56;19.65;;;5.47;;
28531;SDS011;15738;44.860;10.066;2023-07-31T05:19:53;11.65;;;5.50;;
28531;SDS011;15738;44.860;10.066;2023-07-31T05:22:39;10.13;;;4.93;;
28531;SDS011;15738;44.860;10.066;2023-07-31T05:25:25;9.80;;;5.18;;
28531;SDS011;15738;44.860;10.066;2023-07-31T05:28:11;7.88;;;5.10;;
28531;SDS011;15738;44.860;10.066;2023-07-31T05:31:01;7.78;;;4.88;;
28531;SDS011;15738;44.860;10.066;2023-07-31T05:33:48;9.93;;;4.93;;
28531;SDS011;15738;44.860;10.066;2023-07-31T05:36:35;12.80;;;5.20;;
28531;SDS011;15738;44.860;10.066;2023-07-31T05:39:24;17.65;;;5.45;;
28531;SDS011;15738;44.860;10.066;2023-07-31T05:42:10;14.25;;;5.20;;
28531;SDS011;15738;44.860;10.066;2023-07-31T05:44:56;16.08;;;5.63;;
28531;SDS011;15738;44.860;10.066;2023-07-31T05:47:50;21.20;;;5.78;;
28531;SDS011;15738;44.860;10.066;2023-07-31T05:50:35;14.40;;;5.65;;
28531;SDS011;15738;44.860;10.066;2023-07-31T05:53:24;28.92;;;5.78;;
28531;SDS011;15738;44.860;10.066;2023-07-31T05:56:10;22.13;;;5.90;;
28531;SDS011;15738;44.860;10.066;2023-07-31T05:58:56;19.13;;;6.10;;
28531;SDS011;15738;44.860;10.066;2023-07-31T06:01:42;26.73;;;5.50;;
28531;SDS011;15738;44.860;10.066;2023-07-31T06:04:28;12.70;;;5.55;;
28531;SDS011;15738;44.860;10.066;2023-07-31T06:07:14;12.63;;;5.82;;
28531;SDS011;15738;44.860;10.066;2023-07-31T06:10:00;14.45;;;6.10;;
28531;SDS011;15738;44.860;10.066;2023-07-31T06:12:50;11.00;;;5.80;;
28531;SDS011;15738;44.860;10.066;2023-07-31T06:15:35;17.83;;;6.90;;
28531;SDS011;15738;44.860;10.066;2023-07-31T06:18:21;9.95;;;6.35;;
28531;SDS011;15738;44.860;10.066;2023-07-31T06:21:08;14.43;;;7.32;;
28531;SDS011;15738;44.860;10.066;2023-07-31T06:23:55;12.80;;;6.50;;
28531;SDS011;15738;44.860;10.066;2023-07-31T06:26:40;11.77;;;6.85;;
28531;SDS011;15738;44.860;10.066;2023-07-31T06:29:27;11.88;;;7.18;;
28531;SDS011;15738;44.860;10.066;2023-07-31T06:32:13;9.63;;;6.53;;
28531;SDS011;15738;44.860;10.066;2023-07-31T06:34:59;14.27;;;6.43;;
28531;SDS011;15738;44.860;10.066;2023-07-31T06:37:45;10.60;;;7.25;;
28531;SDS011;15738;44.860;10.066;2023-07-31T06:40:31;15.18;;;7.88;;
28531;SDS011;15738;44.860;10.066;2023-07-31T06:43:16;20.00;;;7.78;;
28531;SDS011;15738;44.860;10.066;2023-07-31T06:46:06;11.30;;;8.20;;
28531;SDS011;15738;44.860;10.066;2023-07-31T06:48:52;12.45;;;6.78;;
28531;SDS011;15738;44.860;10.066;2023-07-31T06:51:38;19.35;;;8.35;;
28531;SDS011;15738;44.860;10.066;2023-07-31T06:54:24;18.08;;;7.95;;
28531;SDS011;15738;44.860;10.066;2023-07-31T06:57:10;15.63;;;8.60;;
28531;SDS011;15738;44.860;10.066;2023-07-31T06:59:56;15.88;;;9.00;;
28531;SDS011;15738;44.860;10.066;2023-07-31T07:02:42;18.83;;;9.30;;
28531;SDS011;15738;44.860;10.066;2023-07-31T07:05:28;13.50;;;8.07;;
28531;SDS011;15738;44.860;10.066;2023-07-31T07:08:14;20.33;;;8.10;;
28531;SDS011;15738;44.860;10.066;2023-07-31T07:11:00;15.35;;;8.57;;
28531;SDS011;15738;44.860;10.066;2023-07-31T07:13:47;15.70;;;8.77;;
28531;SDS011;15738;44.860;10.066;2023-07-31T07:16:32;13.23;;;8.38;;
28531;SDS011;15738;44.860;10.066;2023-07-31T07:19:18;14.85;;;10.43;;
28531;SDS011;15738;44.860;10.066;2023-07-31T07:22:04;14.30;;;9.48;;
28531;SDS011;15738;44.860;10.066;2023-07-31T07:24:51;21.08;;;8.98;;
28531;SDS011;15738;44.860;10.066;2023-07-31T07:27:37;15.57;;;8.18;;
28531;SDS011;15738;44.860;10.066;2023-07-31T07:30:23;15.40;;;8.73;;
28531;SDS011;15738;44.860;10.066;2023-07-31T07:33:10;12.00;;;7.40;;
28531;SDS011;15738;44.860;10.066;2023-07-31T07:35:59;17.92;;;8.02;;
28531;SDS011;15738;44.860;10.066;2023-07-31T07:38:46;16.08;;;8.73;;
28531;SDS011;15738;44.860;10.066;2023-07-31T07:41:32;17.50;;;9.45;;
28531;SDS011;15738;44.860;10.066;2023-07-31T07:44:18;16.17;;;8.50;;
28531;SDS011;15738;44.860;10.066;2023-07-31T07:47:04;13.70;;;6.97;;
28531;SDS011;15738;44.860;10.066;2023-07-31T07:49:53;9.88;;;5.97;;
28531;SDS011;15738;44.860;10.066;2023-07-31T07:52:39;12.63;;;6.95;;
28531;SDS011;15738;44.860;10.066;2023-07-31T07:55:26;12.65;;;6.93;;
28531;SDS011;15738;44.860;10.066;2023-07-31T07:58:11;14.27;;;5.65;;
28531;SDS011;15738;44.860;10.066;2023-07-31T08:00:57;7.68;;;5.22;;
28531;SDS011;15738;44.860;10.066;2023-07-31T08:03:43;11.65;;;5.65;;
28531;SDS011;15738;44.860;10.066;2023-07-31T08:06:29;8.90;;;5.45;;
28531;SDS011;15738;44.860;10.066;2023-07-31T08:09:15;6.90;;;5.03;;
28531;SDS011;15738;44.860;10.066;2023-07-31T08:12:01;9.13;;;5.20;;
28531;SDS011;15738;44.860;10.066;2023-07-31T08:14:48;7.50;;;5.00;;
28531;SDS011;15738;44.860;10.066;2023-07-31T08:17:34;11.88;;;5.00;;
28531;SDS011;15738;44.860;10.066;2023-07-31T08:20:20;9.80;;;4.88;;
28531;SDS011;15738;44.860;10.066;2023-07-31T08:23:06;13.02;;;4.95;;
28531;SDS011;15738;44.860;10.066;2023-07-31T08:25:52;12.00;;;5.72;;
28531;SDS011;15738;44.860;10.066;2023-07-31T08:28:38;11.00;;;4.88;;
28531;SDS011;15738;44.860;10.066;2023-07-31T08:31:25;12.43;;;5.22;;
28531;SDS011;15738;44.860;10.066;2023-07-31T08:34:12;10.57;;;5.70;;
28531;SDS011;15738;44.860;10.066;2023-07-31T08:36:57;11.13;;;5.68;;
28531;SDS011;15738;44.860;10.066;2023-07-31T08:39:43;9.95;;;5.65;;
28531;SDS011;15738;44.860;10.066;2023-07-31T08:42:29;10.88;;;6.60;;
28531;SDS011;15738;44.860;10.066;2023-07-31T08:45:17;8.40;;;6.25;;
28531;SDS011;15738;44.860;10.066;2023-07-31T08:48:03;11.48;;;6.43;;
28531;SDS011;15738;44.860;10.066;2023-07-31T08:50:51;11.60;;;7.07;;
28531;SDS011;15738;44.860;10.066;2023-07-31T08:53:38;16.90;;;6.40;;
28531;SDS011;15738;44.860;10.066;2023-07-31T08:56:24;12.30;;;6.18;;
28531;SDS011;15738;44.860;10.066;2023-07-31T08:59:12;10.85;;;5.32;;
28531;SDS011;15738;44.860;10.066;2023-07-31T09:02:06;12.85;;;5.97;;
28531;SDS011;15738;44.860;10.066;2023-07-31T09:04:54;11.93;;;6.78;;
28531;SDS011;15738;44.860;10.066;2023-07-31T09:07:40;13.63;;;6.20;;
28531;SDS011;15738;44.860;10.066;2023-07-31T09:10:27;14.98;;;7.70;;
28531;SDS011;15738;44.860;10.066;2023-07-31T09:13:14;14.23;;;6.35;;
28531;SDS011;15738;44.860;10.066;2023-07-31T09:16:00;11.30;;;6.45;;
28531;SDS011;15738;44.860;10.066;2023-07-31T09:18:53;11.15;;;6.15;;
28531;SDS011;15738;44.860;10.066;2023-07-31T09:21:47;8.85;;;5.93;;
28531;SDS011;15738;44.860;10.066;2023-07-31T09:24:34;9.95;;;7.45;;
28531;SDS011;15738;44.860;10.066;2023-07-31T09:27:20;10.95;;;6.43;;
28531;SDS011;15738;44.860;10.066;2023-07-31T09:30:06;13.07;;;6.82;;
28531;SDS011;15738;44.860;10.066;2023-07-31T09:33:05;14.85;;;7.32;;
28531;SDS011;15738;44.860;10.066;2023-07-31T09:35:52;13.45;;;6.82;;
28531;SDS011;15738;44.860;10.066;2023-07-31T09:38:38;10.82;;;6.63;;
28531;SDS011;15738;44.860;10.066;2023-07-31T09:41:24;13.45;;;7.05;;
28531;SDS011;15738;44.860;10.066;2023-07-31T09:44:10;7.75;;;5.88;;
28531;SDS011;15738;44.860;10.066;2023-07-31T09:46:56;8.82;;;5.15;;
28531;SDS011;15738;44.860;10.066;2023-07-31T09:49:45;7.50;;;4.60;;
28531;SDS011;15738;44.860;10.066;2023-07-31T09:52:31;9.77;;;6.07;;
28531;SDS011;15738;44.860;10.066;2023-07-31T09:55:17;9.52;;;5.85;;
28531;SDS011;15738;44.860;10.066;2023-07-31T09:58:05;5.28;;;4.55;;
28531;SDS011;15738;44.860;10.066;2023-07-31T10:00:55;11.00;;;4.68;;
28531;SDS011;15738;44.860;10.066;2023-07-31T10:03:43;7.30;;;4.72;;
28531;SDS011;15738;44.860;10.066;2023-07-31T10:06:32;6.22;;;3.75;;
28531;SDS011;15738;44.860;10.066;2023-07-31T10:09:20;9.35;;;4.07;;
28531;SDS011;15738;44.860;10.066;2023-07-31T10:12:09;8.50;;;4.13;;
28531;SDS011;15738;44.860;10.066;2023-07-31T10:15:00;5.53;;;3.50;;
28531;SDS011;15738;44.860;10.066;2023-07-31T10:17:49;8.20;;;2.83;;
28531;SDS011;15738;44.860;10.066;2023-07-31T10:20:35;8.45;;;3.22;;
28531;SDS011;15738;44.860;10.066;2023-07-31T10:23:22;7.13;;;3.85;;
28531;SDS011;15738;44.860;10.066;2023-07-31T10:26:09;9.77;;;3.67;;
28531;SDS011;15738;44.860;10.066;2023-07-31T10:28:58;5.78;;;3.30;;
28531;SDS011;15738;44.860;10.066;2023-07-31T10:31:45;7.35;;;4.00;;
28531;SDS011;15738;44.860;10.066;2023-07-31T10:34:33;5.70;;;3.22;;
28531;SDS011;15738;44.860;10.066;2023-07-31T10:40:17;8.63;;;3.30;;
28531;SDS011;15738;44.860;10.066;2023-07-31T10:43:13;6.35;;;4.05;;
28531;SDS011;15738;44.860;10.066;2023-07-31T10:46:11;6.57;;;3.83;;
28531;SDS011;15738;44.860;10.066;2023-07-31T10:49:02;9.40;;;3.90;;
28531;SDS011;15738;44.860;10.066;2023-07-31T10:51:48;10.45;;;3.83;;
28531;SDS011;15738;44.860;10.066;2023-07-31T10:54:34;5.43;;;3.60;;
28531;SDS011;15738;44.860;10.066;2023-07-31T10:57:23;6.47;;;3.58;;
28531;SDS011;15738;44.860;10.066;2023-07-31T11:00:18;5.80;;;4.18;;
28531;SDS011;15738;44.860;10.066;2023-07-31T11:08:46;8.45;;;3.80;;
28531;SDS011;15738;44.860;10.066;2023-07-31T11:11:35;8.95;;;3.55;;
28531;SDS011;15738;44.860;10.066;2023-07-31T11:14:22;8.45;;;3.40;;
28531;SDS011;15738;44.860;10.066;2023-07-31T11:17:09;10.70;;;2.92;;
28531;SDS011;15738;44.860;10.066;2023-07-31T11:19:55;8.38;;;3.70;;
28531;SDS011;15738;44.860;10.066;2023-07-31T11:22:41;7.97;;;3.03;;
28531;SDS011;15738;44.860;10.066;2023-07-31T11:25:28;6.18;;;2.88;;
28531;SDS011;15738;44.860;10.066;2023-07-31T11:28:15;9.15;;;2.78;;
28531;SDS011;15738;44.860;10.066;2023-07-31T11:31:02;5.13;;;2.70;;
28531;SDS011;15738;44.860;10.066;2023-07-31T11:33:49;6.03;;;2.85;;
28531;SDS011;15738;44.860;10.066;2023-07-31T11:36:35;8.02;;;2.72;;
28531;SDS011;15738;44.860;10.066;2023-07-31T11:39:21;3.97;;;2.80;;
28531;SDS011;15738;44.860;10.066;2023-07-31T11:42:07;8.82;;;3.30;;
28531;SDS011;15738;44.860;10.066;2023-07-31T11:44:53;6.03;;;2.65;;
28531;SDS011;15738;44.860;10.066;2023-07-31T11:47:39;8.63;;;2.58;;
28531;SDS011;15738;44.860;10.066;2023-07-31T11:50:25;6.78;;;2.70;;
28531;SDS011;15738;44.860;10.066;2023-07-31T11:53:11;4.93;;;2.80;;
28531;SDS011;15738;44.860;10.066;2023-07-31T11:55:59;7.15;;;2.60;;
28531;SDS011;15738;44.860;10.066;2023-07-31T11:58:46;7.85;;;2.42;;
28531;SDS011;15738;44.860;10.066;2023-07-31T12:01:34;9.40;;;2.67;;
28531;SDS011;15738;44.860;10.066;2023-07-31T12:04:21;8.10;;;3.33;;
28531;SDS011;15738;44.860;10.066;2023-07-31T12:07:09;7.70;;;2.70;;
28531;SDS011;15738;44.860;10.066;2023-07-31T12:09:57;7.93;;;3.03;;
28531;SDS011;15738;44.860;10.066;2023-07-31T12:12:43;4.03;;;2.58;;
28531;SDS011;15738;44.860;10.066;2023-07-31T12:15:29;4.45;;;2.08;;
28531;SDS011;15738;44.860;10.066;2023-07-31T12:18:18;9.43;;;2.97;;
28531;SDS011;15738;44.860;10.066;2023-07-31T12:21:11;6.35;;;2.90;;
28531;SDS011;15738;44.860;10.066;2023-07-31T12:23:59;5.20;;;2.58;;
28531;SDS011;15738;44.860;10.066;2023-07-31T12:26:45;6.03;;;2.80;;
28531;SDS011;15738;44.860;10.066;2023-07-31T12:29:35;5.03;;;2.60;;
28531;SDS011;15738;44.860;10.066;2023-07-31T12:32:25;7.68;;;2.78;;
28531;SDS011;15738;44.860;10.066;2023-07-31T12:35:15;8.30;;;2.90;;
28531;SDS011;15738;44.860;10.066;2023-07-31T12:38:01;4.88;;;2.45;;
28531;SDS011;15738;44.860;10.066;2023-07-31T12:40:47;5.72;;;2.58;;
28531;SDS011;15738;44.860;10.066;2023-07-31T12:43:33;4.32;;;2.70;;
28531;SDS011;15738;44.860;10.066;2023-07-31T12:46:20;6.53;;;2.80;;
28531;SDS011;15738;44.860;10.066;2023-07-31T12:49:06;4.78;;;2.30;;
28531;SDS011;15738;44.860;10.066;2023-07-31T12:51:51;3.83;;;2.50;;
28531;SDS011;15738;44.860;10.066;2023-07-31T12:54:39;3.67;;;2.75;;
28531;SDS011;15738;44.860;10.066;2023-07-31T12:57:24;5.95;;;2.40;;
28531;SDS011;15738;44.860;10.066;2023-07-31T13:00:10;4.95;;;2.33;;
28531;SDS011;15738;44.860;10.066;2023-07-31T13:02:58;4.40;;;2.22;;
28531;SDS011;15738;44.860;10.066;2023-07-31T13:05:46;5.63;;;2.55;;
28531;SDS011;15738;44.860;10.066;2023-07-31T13:08:32;5.97;;;2.55;;
28531;SDS011;15738;44.860;10.066;2023-07-31T13:11:17;7.63;;;2.95;;
28531;SDS011;15738;44.860;10.066;2023-07-31T13:14:03;3.60;;;2.42;;
28531;SDS011;15738;44.860;10.066;2023-07-31T13:16:49;9.52;;;2.97;;
28531;SDS011;15738;44.860;10.066;2023-07-31T13:19:35;5.82;;;2.42;;
28531;SDS011;15738;44.860;10.066;2023-07-31T13:22:21;4.32;;;2.33;;
28531;SDS011;15738;44.860;10.066;2023-07-31T13:25:07;4.60;;;2.20;;
28531;SDS011;15738;44.860;10.066;2023-07-31T13:27:54;5.38;;;2.60;;
28531;SDS011;15738;44.860;10.066;2023-07-31T13:30:41;7.78;;;2.70;;
28531;SDS011;15738;44.860;10.066;2023-07-31T13:33:27;6.95;;;2.47;;
28531;SDS011;15738;44.860;10.066;2023-07-31T13:36:22;4.80;;;2.15;;
28531;SDS011;15738;44.860;10.066;2023-07-31T13:39:08;4.55;;;2.20;;
28531;SDS011;15738;44.860;10.066;2023-07-31T13:41:54;6.00;;;2.25;;
28531;SDS011;15738;44.860;10.066;2023-07-31T13:44:43;9.27;;;2.10;;
28531;SDS011;15738;44.860;10.066;2023-07-31T13:47:29;10.35;;;2.50;;
28531;SDS011;15738;44.860;10.066;2023-07-31T13:50:16;3.10;;;2.03;;
28531;SDS011;15738;44.860;10.066;2023-07-31T13:53:04;6.68;;;2.10;;
28531;SDS011;15738;44.860;10.066;2023-07-31T13:55:50;6.05;;;2.17;;
28531;SDS011;15738;44.860;10.066;2023-07-31T13:58:36;12.52;;;2.38;;
28531;SDS011;15738;44.860;10.066;2023-07-31T14:01:22;9.55;;;2.80;;
28531;SDS011;15738;44.860;10.066;2023-07-31T14:04:09;3.75;;;2.30;;
28531;SDS011;15738;44.860;10.066;2023-07-31T14:06:55;8.93;;;2.63;;
28531;SDS011;15738;44.860;10.066;2023-07-31T14:09:42;8.43;;;2.67;;
28531;SDS011;15738;44.860;10.066;2023-07-31T14:12:28;4.43;;;2.35;;
28531;SDS011;15738;44.860;10.066;2023-07-31T14:15:26;5.50;;;2.47;;
28531;SDS011;15738;44.860;10.066;2023-07-31T14:18:13;9.20;;;2.20;;
28531;SDS011;15738;44.860;10.066;2023-07-31T14:21:00;7.05;;;2.25;;
28531;SDS011;15738;44.860;10.066;2023-07-31T14:23:46;9.80;;;2.60;;
28531;SDS011;15738;44.860;10.066;2023-07-31T14:26:32;7.68;;;2.30;;
28531;SDS011;15738;44.860;10.066;2023-07-31T14:29:17;6.18;;;2.70;;
28531;SDS011;15738;44.860;10.066;2023-07-31T14:32:04;3.83;;;2.40;;
28531;SDS011;15738;44.860;10.066;2023-07-31T14:34:50;5.47;;;2.40;;
28531;SDS011;15738;44.860;10.066;2023-07-31T14:37:37;4.00;;;2.17;;
28531;SDS011;15738;44.860;10.066;2023-07-31T14:40:27;3.65;;;2.20;;
28531;SDS011;15738;44.860;10.066;2023-07-31T14:43:14;3.28;;;2.10;;
28531;SDS011;15738;44.860;10.066;2023-07-31T14:46:00;8.05;;;2.67;;
28531;SDS011;15738;44.860;10.066;2023-07-31T14:48:46;7.18;;;2.78;;
28531;SDS011;15738;44.860;10.066;2023-07-31T14:51:32;4.00;;;2.25;;
28531;SDS011;15738;44.860;10.066;2023-07-31T14:54:18;5.20;;;2.45;;
28531;SDS011;15738;44.860;10.066;2023-07-31T14:57:04;6.85;;;2.40;;
28531;SDS011;15738;44.860;10.066;2023-07-31T14:59:51;5.65;;;2.50;;
28531;SDS011;15738;44.860;10.066;2023-07-31T15:02:37;6.05;;;2.38;;
28531;SDS011;15738;44.860;10.066;2023-07-31T15:05:23;9.88;;;2.65;;
28531;SDS011;15738;44.860;10.066;2023-07-31T15:08:09;4.20;;;2.67;;
28531;SDS011;15738;44.860;10.066;2023-07-31T15:10:55;7.25;;;2.78;;
28531;SDS011;15738;44.860;10.066;2023-07-31T15:13:43;4.28;;;2.55;;
28531;SDS011;15738;44.860;10.066;2023-07-31T15:16:29;4.57;;;2.60;;
28531;SDS011;15738;44.860;10.066;2023-07-31T15:19:16;4.07;;;2.45;;
28531;SDS011;15738;44.860;10.066;2023-07-31T15:22:03;5.07;;;2.20;;
28531;SDS011;15738;44.860;10.066;2023-07-31T15:24:49;5.15;;;2.25;;
28531;SDS011;15738;44.860;10.066;2023-07-31T15:27:34;3.38;;;2.20;;
28531;SDS011;15738;44.860;10.066;2023-07-31T15:30:21;4.10;;;2.20;;
28531;SDS011;15738;44.860;10.066;2023-07-31T15:33:07;5.50;;;2.40;;
28531;SDS011;15738;44.860;10.066;2023-07-31T15:35:53;6.05;;;2.00;;
28531;SDS011;15738;44.860;10.066;2023-07-31T15:38:40;3.25;;;2.22;;
28531;SDS011;15738;44.860;10.066;2023-07-31T15:41:26;6.82;;;2.50;;
28531;SDS011;15738;44.860;10.066;2023-07-31T15:44:14;4.85;;;2.65;;
28531;SDS011;15738;44.860;10.066;2023-07-31T15:47:01;4.15;;;2.38;;
28531;SDS011;15738;44.860;10.066;2023-07-31T15:49:47;4.68;;;2.45;;
28531;SDS011;15738;44.860;10.066;2023-07-31T15:52:32;3.25;;;2.15;;
28531;SDS011;15738;44.860;10.066;2023-07-31T15:55:18;5.50;;;2.67;;
28531;SDS011;15738;44.860;10.066;2023-07-31T15:58:04;3.45;;;2.10;;
28531;SDS011;15738;44.860;10.066;2023-07-31T16:00:50;4.97;;;2.60;;
28531;SDS011;15738;44.860;10.066;2023-07-31T16:03:35;7.40;;;2.50;;
28531;SDS011;15738;44.860;10.066;2023-07-31T16:06:21;3.33;;;2.30;;
28531;SDS011;15738;44.860;10.066;2023-07-31T16:09:07;3.50;;;2.00;;
28531;SDS011;15738;44.860;10.066;2023-07-31T16:11:53;8.45;;;2.20;;
28531;SDS011;15738;44.860;10.066;2023-07-31T16:14:39;5.95;;;2.70;;
28531;SDS011;15738;44.860;10.066;2023-07-31T16:17:25;4.82;;;2.42;;
28531;SDS011;15738;44.860;10.066;2023-07-31T16:20:11;5.03;;;2.10;;
28531;SDS011;15738;44.860;10.066;2023-07-31T16:22:57;6.32;;;2.20;;
28531;SDS011;15738;44.860;10.066;2023-07-31T16:25:43;6.38;;;2.30;;
28531;SDS011;15738;44.860;10.066;2023-07-31T16:28:29;4.07;;;2.35;;
28531;SDS011;15738;44.860;10.066;2023-07-31T16:31:15;5.78;;;2.40;;
28531;SDS011;15738;44.860;10.066;2023-07-31T16:34:01;6.47;;;1.88;;
28531;SDS011;15738;44.860;10.066;2023-07-31T16:36:47;10.55;;;2.53;;
28531;SDS011;15738;44.860;10.066;2023-07-31T16:39:32;5.75;;;2.55;;
28531;SDS011;15738;44.860;10.066;2023-07-31T16:42:21;6.75;;;2.58;;